createdAt,value
2019-04-29T04:23:57.812Z,0.00
2019-04-29T04:24:53.483Z,0.00
2019-04-29T04:25:53.486Z,0.00
2019-04-29T04:26:53.475Z,0.00
2019-04-29T04:27:53.460Z,0.00
2019-04-29T04:28:53.442Z,0.00
2019-04-29T04:29:53.458Z,0.00
2019-04-29T04:30:53.443Z,0.00
2019-04-29T04:31:53.420Z,5.63
2019-04-29T04:32:53.434Z,5.63
2019-04-29T04:33:53.429Z,5.63
2019-04-29T04:34:53.351Z,5.63
2019-04-29T04:35:53.395Z,5.63
2019-04-29T04:36:53.333Z,5.63
2019-04-29T04:37:53.354Z,5.63
2019-04-29T04:38:53.350Z,5.63
2019-04-29T04:39:53.300Z,5.63
2019-04-29T04:40:53.291Z,5.63
2019-04-29T04:41:53.314Z,5.63
2019-04-29T04:42:53.266Z,5.63
2019-04-29T04:43:53.261Z,5.63
2019-04-29T04:44:53.246Z,5.63
2019-04-29T04:45:53.320Z,5.63
2019-04-29T04:46:53.228Z,5.63
2019-04-29T04:47:53.244Z,5.63
2019-04-29T04:48:53.224Z,11.25
2019-04-29T04:49:53.191Z,11.25
2019-04-29T04:50:53.187Z,11.25
2019-04-29T04:51:53.189Z,11.25
2019-04-29T04:52:53.177Z,11.25
2019-04-29T04:53:53.179Z,11.25
2019-04-29T04:54:53.136Z,16.88
2019-04-29T04:55:53.131Z,16.88
2019-04-29T04:56:53.125Z,16.88
2019-04-29T04:57:53.188Z,16.88
2019-04-29T04:58:53.112Z,22.50
2019-04-29T04:59:53.149Z,22.50
2019-04-29T05:00:53.086Z,22.50
2019-04-29T05:01:53.075Z,28.13
2019-04-29T05:02:53.073Z,33.75
2019-04-29T05:03:53.061Z,33.75
2019-04-29T05:04:53.063Z,33.75
2019-04-29T05:05:53.031Z,39.38
2019-04-29T05:06:53.062Z,39.38
2019-04-29T05:07:53.029Z,39.38
2019-04-29T05:08:53.094Z,45.00
2019-04-29T05:09:53.045Z,50.63
2019-04-29T05:10:53.029Z,50.63
2019-04-29T05:11:53.016Z,50.63
2019-04-29T05:12:53.013Z,56.25
2019-04-29T05:13:52.961Z,61.88
2019-04-29T05:14:52.955Z,67.50
2019-04-29T05:15:52.952Z,67.50
2019-04-29T05:16:52.969Z,73.13
2019-04-29T05:17:53.340Z,73.13
2019-04-29T05:18:52.945Z,73.13
2019-04-29T05:19:52.943Z,73.13
2019-04-29T05:20:52.928Z,73.13
2019-04-29T05:21:52.914Z,73.13
2019-04-29T05:22:52.898Z,67.50
2019-04-29T05:23:52.908Z,61.88
2019-04-29T05:24:52.909Z,56.25
2019-04-29T05:25:52.918Z,56.25
2019-04-29T05:26:52.896Z,61.88
2019-04-29T05:27:52.899Z,67.50
2019-04-29T05:28:52.907Z,78.75
2019-04-29T05:29:52.914Z,84.38
2019-04-29T05:30:52.873Z,101.25
2019-04-29T05:31:52.894Z,118.13
2019-04-29T05:32:52.899Z,123.75
2019-04-29T05:33:52.880Z,135.00
2019-04-29T05:34:55.002Z,151.88
2019-04-29T05:35:56.735Z,168.75
2019-04-29T05:36:52.876Z,180.00
2019-04-29T05:37:52.870Z,185.63
2019-04-29T05:38:52.836Z,191.25
2019-04-29T05:39:52.871Z,213.75
2019-04-29T05:40:52.854Z,185.63
2019-04-29T05:41:52.837Z,135.00
2019-04-29T05:42:54.060Z,95.63
2019-04-29T05:43:52.863Z,84.38
2019-04-29T05:44:52.835Z,90.00
2019-04-29T05:45:52.826Z,78.75
2019-04-29T05:46:52.837Z,73.13
2019-04-29T05:47:57.088Z,73.13
2019-04-29T05:48:52.847Z,73.13
2019-04-29T05:49:52.832Z,73.13
2019-04-29T05:50:53.225Z,73.13
2019-04-29T05:51:52.853Z,84.38
2019-04-29T05:52:52.828Z,73.13
2019-04-29T05:53:55.113Z,118.13
2019-04-29T05:54:52.822Z,84.38
2019-04-29T05:55:52.839Z,129.38
2019-04-29T05:56:52.824Z,123.75
2019-04-29T05:57:55.415Z,118.13
2019-04-29T05:58:52.834Z,123.75
2019-04-29T05:59:52.847Z,106.88
2019-04-29T06:00:52.819Z,112.50
2019-04-29T06:01:52.831Z,118.13
2019-04-29T06:02:52.816Z,146.25
2019-04-29T06:03:52.868Z,157.50
2019-04-29T06:04:54.024Z,146.25
2019-04-29T06:05:52.814Z,129.38
2019-04-29T06:06:52.800Z,129.38
2019-04-29T06:07:56.251Z,123.75
2019-04-29T06:08:52.794Z,112.50
2019-04-29T06:09:52.797Z,129.38
2019-04-29T06:10:52.800Z,129.38
2019-04-29T06:11:52.791Z,135.00
2019-04-29T06:12:52.802Z,123.75
2019-04-29T06:13:52.798Z,84.38
2019-04-29T06:14:52.782Z,73.13
2019-04-29T06:15:52.790Z,61.88
2019-04-29T06:16:53.056Z,61.88
2019-04-29T06:17:52.791Z,61.88
2019-04-29T06:18:59.669Z,61.88
2019-04-29T06:19:52.778Z,56.25
2019-04-29T06:20:52.757Z,56.25
2019-04-29T06:21:52.776Z,56.25
2019-04-29T06:22:52.766Z,50.63
2019-04-29T06:23:54.534Z,50.63
2019-04-29T06:24:52.742Z,50.63
2019-04-29T06:25:52.777Z,45.00
2019-04-29T06:26:52.731Z,45.00
2019-04-29T06:27:52.742Z,39.38
2019-04-29T06:28:52.735Z,39.38
2019-04-29T06:29:52.754Z,39.38
2019-04-29T06:30:52.760Z,39.38
2019-04-29T06:31:52.721Z,33.75
2019-04-29T06:32:52.743Z,33.75
2019-04-29T06:33:52.757Z,33.75
2019-04-29T06:34:52.765Z,33.75
2019-04-29T06:35:52.734Z,33.75
2019-04-29T06:36:52.718Z,33.75
2019-04-29T06:37:52.716Z,33.75
2019-04-29T06:38:52.700Z,33.75
2019-04-29T06:39:52.681Z,33.75
2019-04-29T06:40:52.689Z,39.38
2019-04-29T06:41:52.711Z,39.38
2019-04-29T06:42:55.230Z,39.38
2019-04-29T06:43:55.897Z,39.38
2019-04-29T06:44:52.668Z,39.38
2019-04-29T06:45:52.755Z,39.38
2019-04-29T06:46:54.520Z,39.38
2019-04-29T06:47:52.696Z,39.38
2019-04-29T06:48:52.622Z,39.38
2019-04-29T06:49:52.645Z,39.38
2019-04-29T06:50:52.654Z,39.38
2019-04-29T06:51:52.635Z,45.00
2019-04-29T06:52:52.632Z,45.00
2019-04-29T06:53:52.610Z,45.00
2019-04-29T06:54:52.585Z,45.00
2019-04-29T06:55:52.606Z,45.00
2019-04-29T06:56:52.668Z,45.00
2019-04-29T06:57:52.650Z,45.00
2019-04-29T06:58:52.577Z,45.00
2019-04-29T06:59:54.754Z,45.00
2019-04-29T07:00:55.749Z,45.00
2019-04-29T07:01:52.562Z,45.00
2019-04-29T07:02:52.539Z,45.00
2019-04-29T07:03:55.800Z,45.00
2019-04-29T07:04:52.591Z,45.00
2019-04-29T07:05:52.533Z,45.00
2019-04-29T07:06:57.543Z,45.00
2019-04-29T07:07:52.514Z,45.00
2019-04-29T07:08:52.541Z,45.00
2019-04-29T07:09:52.509Z,45.00
2019-04-29T07:10:55.822Z,45.00
2019-04-29T07:11:52.501Z,45.00
2019-04-29T07:12:52.503Z,45.00
2019-04-29T07:13:53.441Z,45.00
2019-04-29T07:14:52.477Z,45.00
2019-04-29T07:15:52.504Z,45.00
2019-04-29T07:16:52.457Z,45.00
2019-04-29T07:17:52.455Z,45.00
2019-04-29T07:18:53.827Z,45.00
2019-04-29T07:19:52.448Z,45.00
2019-04-29T07:20:52.536Z,45.00
2019-04-29T07:21:54.998Z,45.00
2019-04-29T07:22:52.472Z,45.00
2019-04-29T07:23:52.439Z,45.00
2019-04-29T07:24:52.417Z,45.00
2019-04-29T07:25:52.419Z,45.00
2019-04-29T07:26:52.437Z,45.00
2019-04-29T07:27:52.405Z,45.00
2019-04-29T07:28:55.072Z,45.00
2019-04-29T07:29:52.389Z,45.00
2019-04-29T07:31:01.764Z,45.00
2019-04-29T07:31:52.397Z,45.00
2019-04-29T07:32:52.405Z,45.00
2019-04-29T07:33:53.673Z,45.00
2019-04-29T07:34:52.351Z,45.00
2019-04-29T07:35:52.361Z,45.00
2019-04-29T07:36:53.186Z,45.00
2019-04-29T07:37:52.389Z,45.00
2019-04-29T07:38:56.283Z,45.00
2019-04-29T07:39:52.328Z,45.00
2019-04-29T07:40:52.349Z,45.00
2019-04-29T07:41:53.686Z,45.00
2019-04-29T07:42:52.320Z,45.00
2019-04-29T07:43:52.338Z,45.00
2019-04-29T07:44:52.803Z,45.00
2019-04-29T07:45:52.448Z,45.00
2019-04-29T07:46:56.608Z,45.00
2019-04-29T07:47:56.469Z,45.00
2019-04-29T07:49:01.223Z,45.00
2019-04-29T07:49:53.023Z,45.00
2019-04-29T07:50:52.287Z,45.00
2019-04-29T07:51:52.270Z,45.00
2019-04-29T07:52:52.260Z,45.00
2019-04-29T07:53:52.298Z,45.00
2019-04-29T07:54:56.078Z,45.00
2019-04-29T07:55:52.253Z,45.00
2019-04-29T07:56:52.244Z,45.00
2019-04-29T07:57:53.227Z,45.00
2019-04-29T07:58:52.239Z,45.00
2019-04-29T07:59:52.249Z,45.00
2019-04-29T08:00:52.233Z,45.00
2019-04-29T08:01:55.779Z,45.00
2019-04-29T08:02:52.208Z,45.00
2019-04-29T08:03:52.204Z,45.00
2019-04-29T08:04:52.202Z,45.00
2019-04-29T08:05:52.199Z,45.00
2019-04-29T08:06:52.219Z,45.00
2019-04-29T08:07:52.176Z,45.00
2019-04-29T08:08:55.570Z,45.00
2019-04-29T08:09:52.196Z,45.00
2019-04-29T08:10:56.431Z,45.00
2019-04-29T08:11:52.197Z,45.00
2019-04-29T08:12:52.154Z,45.00
2019-04-29T08:13:52.168Z,45.00
2019-04-29T08:14:53.469Z,45.00
2019-04-29T08:15:52.142Z,45.00
2019-04-29T08:16:52.158Z,45.00
2019-04-29T08:18:05.552Z,45.00
2019-04-29T08:18:53.607Z,45.00
2019-04-29T08:19:52.142Z,45.00
2019-04-29T08:20:52.149Z,50.63
2019-04-29T08:21:52.223Z,50.63
2019-04-29T08:22:52.111Z,50.63
2019-04-29T08:23:52.104Z,50.63
2019-04-29T08:24:52.269Z,50.63
2019-04-29T08:25:52.102Z,50.63
2019-04-29T08:26:52.094Z,50.63
2019-04-29T08:27:52.083Z,50.63
2019-04-29T08:28:52.901Z,50.63
2019-04-29T08:29:52.070Z,50.63
2019-04-29T08:30:52.066Z,50.63
2019-04-29T08:31:56.689Z,50.63
2019-04-29T08:32:52.071Z,50.63
2019-04-29T08:33:52.054Z,50.63
2019-04-29T08:34:53.692Z,45.00
2019-04-29T08:35:52.069Z,50.63
2019-04-29T08:36:52.045Z,45.00
2019-04-29T08:37:52.028Z,50.63
2019-04-29T08:38:52.023Z,50.63
2019-04-29T08:40:08.412Z,50.63
2019-04-29T08:40:52.023Z,50.63
2019-04-29T08:41:52.036Z,50.63
2019-04-29T08:42:52.003Z,50.63
2019-04-29T08:43:52.521Z,50.63
2019-04-29T08:44:54.754Z,50.63
2019-04-29T08:45:52.037Z,50.63
2019-04-29T08:46:52.910Z,50.63
2019-04-29T08:47:52.026Z,50.63
2019-04-29T08:48:51.996Z,50.63
2019-04-29T08:49:51.981Z,50.63
2019-04-29T08:50:52.001Z,50.63
2019-04-29T08:51:51.997Z,50.63
2019-04-29T08:52:51.992Z,50.63
2019-04-29T08:53:51.955Z,50.63
2019-04-29T08:54:55.482Z,50.63
2019-04-29T08:55:51.971Z,50.63
2019-04-29T08:57:04.335Z,50.63
2019-04-29T08:57:51.947Z,50.63
2019-04-29T08:58:51.931Z,50.63
2019-04-29T08:59:51.940Z,50.63
2019-04-29T09:00:55.678Z,50.63
2019-04-29T09:01:51.950Z,50.63
2019-04-29T09:02:51.910Z,50.63
2019-04-29T09:03:53.778Z,50.63
2019-04-29T09:04:53.752Z,50.63
2019-04-29T09:06:04.266Z,50.63
2019-04-29T09:06:51.904Z,50.63
2019-04-29T09:07:52.467Z,50.63
2019-04-29T09:08:55.509Z,50.63
2019-04-29T09:09:56.145Z,50.63
2019-04-29T09:10:51.887Z,50.63
2019-04-29T09:11:51.924Z,50.63
2019-04-29T09:12:51.901Z,50.63
2019-04-29T09:13:51.864Z,50.63
2019-04-29T09:14:51.877Z,50.63
2019-04-29T09:15:51.875Z,50.63
2019-04-29T09:16:51.871Z,50.63
2019-04-29T09:17:51.862Z,45.00
2019-04-29T09:18:51.849Z,45.00
2019-04-29T09:19:51.851Z,45.00
2019-04-29T09:20:52.022Z,45.00
2019-04-29T09:21:51.834Z,45.00
2019-04-29T09:22:51.869Z,45.00
2019-04-29T09:23:51.828Z,45.00
2019-04-29T09:24:51.827Z,45.00
2019-04-29T09:26:02.454Z,45.00
2019-04-29T09:26:51.828Z,45.00
2019-04-29T09:27:51.848Z,45.00
2019-04-29T09:28:51.812Z,45.00
2019-04-29T09:29:54.217Z,45.00
2019-04-29T09:30:51.826Z,45.00
2019-04-29T09:31:51.830Z,45.00
2019-04-29T09:32:51.795Z,45.00
2019-04-29T09:33:59.717Z,45.00
2019-04-29T09:34:55.558Z,45.00
2019-04-29T09:35:51.787Z,45.00
2019-04-29T09:36:51.796Z,45.00
2019-04-29T09:37:53.882Z,45.00
2019-04-29T09:38:51.795Z,45.00
2019-04-29T09:39:51.763Z,45.00
2019-04-29T09:40:54.460Z,45.00
2019-04-29T09:41:51.759Z,45.00
2019-04-29T09:42:51.890Z,45.00
2019-04-29T09:43:51.750Z,45.00
2019-04-29T09:44:51.745Z,45.00
2019-04-29T09:45:53.935Z,45.00
2019-04-29T09:46:51.757Z,45.00
2019-04-29T09:47:51.733Z,45.00
2019-04-29T09:48:51.722Z,45.00
2019-04-29T09:49:51.721Z,45.00
2019-04-29T09:50:51.724Z,45.00
2019-04-29T09:51:51.710Z,39.38
2019-04-29T09:52:51.757Z,45.00
2019-04-29T09:53:51.709Z,45.00
2019-04-29T09:54:51.712Z,39.38
2019-04-29T09:55:51.724Z,45.00
2019-04-29T09:56:51.695Z,45.00
2019-04-29T09:57:51.706Z,45.00
2019-04-29T09:58:51.690Z,45.00
2019-04-29T09:59:51.682Z,45.00
2019-04-29T10:00:51.689Z,45.00
2019-04-29T10:01:55.105Z,45.00
2019-04-29T10:02:51.673Z,45.00
2019-04-29T10:03:51.691Z,45.00
2019-04-29T10:04:56.932Z,45.00
2019-04-29T10:05:51.692Z,50.63
2019-04-29T10:06:51.662Z,50.63
2019-04-29T10:07:51.687Z,45.00
2019-04-29T10:08:51.661Z,50.63
2019-04-29T10:09:57.305Z,50.63
2019-04-29T10:10:51.651Z,50.63
2019-04-29T10:11:51.643Z,50.63
2019-04-29T10:12:53.910Z,50.63
2019-04-29T10:13:51.646Z,50.63
2019-04-29T10:14:51.706Z,50.63
2019-04-29T10:15:51.659Z,50.63
2019-04-29T10:16:51.671Z,45.00
2019-04-29T10:17:55.515Z,45.00
2019-04-29T10:18:51.618Z,45.00
2019-04-29T10:19:51.618Z,45.00
2019-04-29T10:20:51.643Z,50.63
2019-04-29T10:21:51.606Z,50.63
2019-04-29T10:22:53.864Z,45.00
2019-04-29T10:23:51.608Z,45.00
2019-04-29T10:24:51.612Z,45.00
2019-04-29T10:25:51.620Z,45.00
2019-04-29T10:26:51.633Z,45.00
2019-04-29T10:27:51.619Z,50.63
2019-04-29T10:28:51.640Z,50.63
2019-04-29T10:29:55.367Z,50.63
2019-04-29T10:30:51.586Z,50.63
2019-04-29T10:31:51.604Z,50.63
2019-04-29T10:32:51.581Z,50.63
2019-04-29T10:33:55.016Z,50.63
2019-04-29T10:34:51.604Z,50.63
2019-04-29T10:35:51.568Z,50.63
2019-04-29T10:36:52.541Z,50.63
2019-04-29T10:37:51.558Z,50.63
2019-04-29T10:38:51.563Z,50.63
2019-04-29T10:39:51.552Z,50.63
2019-04-29T10:40:51.548Z,50.63
2019-04-29T10:41:51.577Z,50.63
2019-04-29T10:42:51.556Z,50.63
2019-04-29T10:43:53.662Z,50.63
2019-04-29T10:44:51.559Z,50.63
2019-04-29T10:45:51.547Z,50.63
2019-04-29T10:46:51.565Z,50.63
2019-04-29T10:47:51.555Z,50.63
2019-04-29T10:48:51.563Z,50.63
2019-04-29T10:49:51.531Z,50.63
2019-04-29T10:50:52.038Z,50.63
2019-04-29T10:51:51.568Z,50.63
2019-04-29T10:52:51.531Z,50.63
2019-04-29T10:53:52.690Z,50.63
2019-04-29T10:54:55.256Z,50.63
2019-04-29T10:55:51.522Z,50.63
2019-04-29T10:56:51.544Z,50.63
2019-04-29T10:57:51.550Z,50.63
2019-04-29T10:58:51.504Z,50.63
2019-04-29T10:59:51.542Z,50.63
2019-04-29T11:00:52.737Z,50.63
2019-04-29T11:02:01.088Z,50.63
2019-04-29T11:02:51.506Z,50.63
2019-04-29T11:03:51.529Z,50.63
2019-04-29T11:04:51.492Z,50.63
2019-04-29T11:06:00.315Z,50.63
2019-04-29T11:06:51.499Z,50.63
2019-04-29T11:07:51.492Z,45.00
2019-04-29T11:08:51.484Z,45.00
2019-04-29T11:09:52.652Z,45.00
2019-04-29T11:10:51.505Z,45.00
2019-04-29T11:11:51.472Z,45.00
2019-04-29T11:12:51.540Z,45.00
2019-04-29T11:13:51.561Z,45.00
2019-04-29T11:14:51.505Z,45.00
2019-04-29T11:15:51.467Z,45.00
2019-04-29T11:16:51.533Z,45.00
2019-04-29T11:17:58.862Z,45.00
2019-04-29T11:18:55.023Z,45.00
2019-04-29T11:19:51.505Z,45.00
2019-04-29T11:20:53.639Z,45.00
2019-04-29T11:21:51.503Z,45.00
2019-04-29T11:22:51.454Z,45.00
2019-04-29T11:23:54.898Z,45.00
2019-04-29T11:24:51.466Z,45.00
2019-04-29T11:25:51.619Z,50.63
2019-04-29T11:26:51.487Z,50.63
2019-04-29T11:27:51.457Z,50.63
2019-04-29T11:28:52.384Z,50.63
2019-04-29T11:29:51.451Z,45.00
2019-04-29T11:30:51.444Z,45.00
2019-04-29T11:31:54.188Z,45.00
2019-04-29T11:32:51.459Z,45.00
2019-04-29T11:33:51.488Z,50.63
2019-04-29T11:34:53.508Z,45.00
2019-04-29T11:35:51.476Z,45.00
2019-04-29T11:36:51.448Z,45.00
2019-04-29T11:37:55.381Z,45.00
2019-04-29T11:38:51.446Z,45.00
2019-04-29T11:39:51.807Z,45.00
2019-04-29T11:40:51.422Z,45.00
2019-04-29T11:41:54.568Z,45.00
2019-04-29T11:42:51.425Z,50.63
2019-04-29T11:43:52.815Z,50.63
2019-04-29T11:44:51.424Z,50.63
2019-04-29T11:45:51.406Z,50.63
2019-04-29T11:46:51.404Z,45.00
2019-04-29T11:47:51.412Z,50.63
2019-04-29T11:48:51.407Z,45.00
2019-04-29T11:49:51.411Z,50.63
2019-04-29T11:50:54.714Z,50.63
2019-04-29T11:52:08.732Z,45.00
2019-04-29T11:52:51.403Z,45.00
2019-04-29T11:53:51.427Z,45.00
2019-04-29T11:54:51.403Z,45.00
2019-04-29T11:55:52.574Z,45.00
2019-04-29T11:56:51.447Z,45.00
2019-04-29T11:57:51.404Z,45.00
2019-04-29T11:58:51.385Z,45.00
2019-04-29T11:59:51.386Z,45.00
2019-04-29T12:00:52.067Z,45.00
2019-04-29T12:01:53.312Z,45.00
2019-04-29T12:02:51.384Z,45.00
2019-04-29T12:03:56.271Z,45.00
2019-04-29T12:04:51.378Z,45.00
2019-04-29T12:05:51.382Z,45.00
2019-04-29T12:06:56.106Z,45.00
2019-04-29T12:07:51.385Z,45.00
2019-04-29T12:08:53.221Z,45.00
2019-04-29T12:09:51.368Z,45.00
2019-04-29T12:11:06.059Z,45.00
2019-04-29T12:11:51.373Z,45.00
2019-04-29T12:12:51.444Z,45.00
2019-04-29T12:13:51.388Z,45.00
2019-04-29T12:14:51.368Z,45.00
2019-04-29T12:15:51.374Z,45.00
2019-04-29T12:16:54.576Z,45.00
2019-04-29T12:17:51.382Z,45.00
2019-04-29T12:18:51.361Z,45.00
2019-04-29T12:19:51.402Z,45.00
2019-04-29T12:20:51.411Z,45.00
2019-04-29T12:21:51.406Z,45.00
2019-04-29T12:22:51.386Z,45.00
2019-04-29T12:23:52.030Z,45.00
2019-04-29T12:24:51.348Z,45.00
2019-04-29T12:25:51.393Z,45.00
2019-04-29T12:26:51.346Z,45.00
2019-04-29T12:28:01.166Z,45.00
2019-04-29T12:28:51.357Z,45.00
2019-04-29T12:29:54.287Z,45.00
2019-04-29T12:30:51.362Z,45.00
2019-04-29T12:31:51.417Z,45.00
2019-04-29T12:32:51.355Z,45.00
2019-04-29T12:33:51.360Z,45.00
2019-04-29T12:34:51.378Z,45.00
2019-04-29T12:35:52.334Z,45.00
2019-04-29T12:36:56.206Z,45.00
2019-04-29T12:37:51.314Z,45.00
2019-04-29T12:38:51.578Z,45.00
2019-04-29T12:39:51.316Z,45.00
2019-04-29T12:40:55.026Z,45.00
2019-04-29T12:41:51.322Z,45.00
2019-04-29T12:42:51.346Z,45.00
2019-04-29T12:43:53.552Z,45.00
2019-04-29T12:44:51.328Z,45.00
2019-04-29T12:45:53.722Z,45.00
2019-04-29T12:46:51.323Z,45.00
2019-04-29T12:47:51.313Z,45.00
2019-04-29T12:48:51.309Z,45.00
2019-04-29T12:49:51.301Z,45.00
2019-04-29T12:50:57.376Z,45.00
2019-04-29T12:51:51.304Z,45.00
2019-04-29T12:52:51.366Z,45.00
2019-04-29T12:54:00.073Z,45.00
2019-04-29T12:55:55.964Z,45.00
2019-04-29T12:56:55.768Z,39.38
2019-04-29T12:57:55.796Z,39.38
2019-04-29T12:58:59.608Z,39.38
2019-04-29T12:59:55.787Z,39.38
2019-04-29T13:00:59.952Z,39.38
2019-04-29T13:01:58.568Z,39.38
2019-04-29T13:02:59.835Z,39.38
2019-04-29T13:03:55.763Z,39.38
2019-04-29T13:04:55.763Z,39.38
2019-04-29T13:05:58.261Z,39.38
2019-04-29T13:06:55.806Z,39.38
2019-04-29T13:07:55.769Z,39.38
2019-04-29T13:08:55.801Z,39.38
2019-04-29T13:09:55.759Z,39.38
2019-04-29T13:10:55.756Z,39.38
2019-04-29T13:12:11.149Z,39.38
2019-04-29T13:12:58.122Z,39.38
2019-04-29T13:13:58.274Z,39.38
2019-04-29T13:15:02.743Z,39.38
2019-04-29T13:15:55.761Z,39.38
2019-04-29T13:16:57.003Z,39.38
2019-04-29T13:18:03.064Z,39.38
2019-04-29T13:19:00.069Z,39.38
2019-04-29T13:20:02.254Z,39.38
2019-04-29T13:21:09.125Z,39.38
2019-04-29T13:21:55.745Z,39.38
2019-04-29T13:23:00.549Z,39.38
2019-04-29T13:24:12.550Z,39.38
2019-04-29T13:24:55.750Z,39.38
2019-04-29T13:25:56.394Z,39.38
2019-04-29T13:26:55.751Z,45.00
2019-04-29T13:28:03.681Z,45.00
2019-04-29T13:29:01.160Z,45.00
2019-04-29T13:29:55.759Z,39.38
2019-04-29T13:30:56.935Z,39.38
2019-04-29T13:31:55.788Z,39.38
2019-04-29T13:32:55.764Z,39.38
2019-04-29T13:33:55.777Z,39.38
2019-04-29T13:34:55.764Z,39.38
2019-04-29T13:35:55.752Z,39.38
2019-04-29T13:37:06.470Z,39.38
2019-04-29T13:37:55.736Z,39.38
2019-04-29T13:38:55.767Z,33.75
2019-04-29T13:39:55.891Z,33.75
2019-04-29T13:41:11.794Z,33.75
2019-04-29T13:41:58.023Z,33.75
2019-04-29T13:42:55.758Z,33.75
2019-04-29T13:44:04.421Z,33.75
2019-04-29T13:45:07.444Z,28.13
2019-04-29T13:45:55.970Z,28.13
2019-04-29T13:46:55.736Z,28.13
2019-04-29T13:47:55.744Z,28.13
2019-04-29T13:48:59.775Z,33.75
2019-04-29T13:49:55.754Z,28.13
2019-04-29T13:50:55.725Z,28.13
2019-04-29T13:51:55.730Z,28.13
2019-04-29T13:52:55.739Z,33.75
2019-04-29T13:53:59.837Z,33.75
2019-04-29T13:54:55.735Z,33.75
2019-04-29T13:56:10.302Z,33.75
2019-04-29T13:56:56.842Z,33.75
2019-04-29T13:57:55.719Z,33.75
2019-04-29T13:58:58.630Z,33.75
2019-04-29T13:59:55.707Z,33.75
2019-04-29T14:00:59.436Z,33.75
2019-04-29T14:02:01.243Z,33.75
2019-04-29T14:02:59.139Z,33.75
2019-04-29T14:03:55.723Z,33.75
2019-04-29T14:04:56.018Z,33.75
2019-04-29T14:06:04.007Z,28.13
2019-04-29T14:06:57.348Z,28.13
2019-04-29T14:07:55.727Z,28.13
2019-04-29T14:08:55.707Z,28.13
2019-04-29T14:09:55.708Z,28.13
2019-04-29T14:10:57.283Z,28.13
2019-04-29T14:12:04.346Z,28.13
2019-04-29T14:13:55.740Z,28.13
2019-04-29T14:14:58.495Z,28.13
2019-04-29T14:15:55.727Z,28.13
2019-04-29T14:17:17.026Z,22.50
2019-04-29T14:17:55.690Z,22.50
2019-04-29T14:18:53.585Z,28.13
2019-04-29T14:18:55.708Z,22.50
2019-04-29T14:19:57.075Z,22.50
2019-04-29T14:20:55.949Z,22.50
2019-04-29T14:21:55.685Z,28.13
2019-04-29T14:22:55.673Z,28.13
2019-04-29T14:23:55.994Z,28.13
2019-04-29T14:24:55.705Z,22.50
2019-04-29T14:25:55.699Z,22.50
2019-04-29T14:26:55.708Z,22.50
2019-04-29T14:27:55.684Z,22.50
2019-04-29T14:28:55.707Z,28.13
2019-04-29T14:29:55.674Z,28.13
2019-04-29T14:30:56.035Z,28.13
2019-04-29T14:31:59.196Z,28.13
2019-04-29T14:32:55.710Z,28.13
2019-04-29T14:33:59.818Z,28.13
2019-04-29T14:34:55.662Z,28.13
2019-04-29T14:35:55.709Z,28.13
2019-04-29T14:37:10.521Z,28.13
2019-04-29T14:38:00.064Z,28.13
2019-04-29T14:38:55.675Z,28.13
2019-04-29T14:39:55.670Z,28.13
2019-04-29T14:40:55.696Z,28.13
2019-04-29T14:41:56.478Z,28.13
2019-04-29T14:42:57.850Z,28.13
2019-04-29T14:43:57.023Z,28.13
2019-04-29T14:44:55.655Z,28.13
2019-04-29T14:45:55.651Z,28.13
2019-04-29T14:46:56.219Z,28.13
2019-04-29T14:47:55.645Z,28.13
2019-04-29T14:48:59.574Z,22.50
2019-04-29T14:49:55.646Z,22.50
2019-04-29T14:50:56.140Z,22.50
2019-04-29T14:51:55.647Z,22.50
2019-04-29T14:52:55.686Z,22.50
2019-04-29T14:53:57.071Z,22.50
2019-04-29T14:54:55.698Z,22.50
2019-04-29T14:55:55.676Z,22.50
2019-04-29T14:56:55.650Z,22.50
2019-04-29T14:57:55.728Z,22.50
2019-04-29T14:59:06.672Z,22.50
2019-04-29T14:59:55.765Z,22.50
2019-04-29T15:00:55.650Z,22.50
2019-04-29T15:01:55.671Z,22.50
2019-04-29T15:03:00.076Z,22.50
2019-04-29T15:03:55.667Z,22.50
2019-04-29T15:04:55.699Z,22.50
2019-04-29T15:05:55.694Z,22.50
2019-04-29T15:06:55.630Z,22.50
2019-04-29T15:07:55.673Z,22.50
2019-04-29T15:08:55.701Z,22.50
2019-04-29T15:09:57.320Z,22.50
2019-04-29T15:10:55.721Z,22.50
2019-04-29T15:11:58.577Z,22.50
2019-04-29T15:13:01.402Z,22.50
2019-04-29T15:13:55.891Z,22.50
2019-04-29T15:14:59.242Z,22.50
2019-04-29T15:16:04.314Z,22.50
2019-04-29T15:16:55.630Z,22.50
2019-04-29T15:17:55.704Z,22.50
2019-04-29T15:18:55.632Z,22.50
2019-04-29T15:19:56.514Z,22.50
2019-04-29T15:20:56.531Z,22.50
2019-04-29T15:21:55.605Z,22.50
2019-04-29T15:22:55.595Z,22.50
2019-04-29T15:23:55.610Z,22.50
2019-04-29T15:24:55.629Z,22.50
2019-04-29T15:25:55.618Z,22.50
2019-04-29T15:26:55.593Z,22.50
2019-04-29T15:27:55.622Z,22.50
2019-04-29T15:28:55.628Z,22.50
2019-04-29T15:29:55.583Z,22.50
2019-04-29T15:30:55.583Z,22.50
2019-04-29T15:31:55.611Z,22.50
2019-04-29T15:32:58.059Z,22.50
2019-04-29T15:33:55.584Z,22.50
2019-04-29T15:34:55.606Z,22.50
2019-04-29T15:35:59.932Z,22.50
2019-04-29T15:36:55.584Z,22.50
2019-04-29T15:39:08.568Z,22.50
2019-04-29T15:39:58.365Z,22.50
2019-04-29T15:40:55.583Z,16.88
2019-04-29T15:41:55.822Z,16.88
2019-04-29T15:42:55.567Z,16.88
2019-04-29T15:44:07.096Z,16.88
2019-04-29T15:44:56.914Z,16.88
2019-04-29T15:45:55.596Z,16.88
2019-04-29T15:46:55.570Z,16.88
2019-04-29T15:47:55.567Z,16.88
2019-04-29T15:48:55.562Z,16.88
2019-04-29T15:50:00.383Z,16.88
2019-04-29T15:50:55.561Z,16.88
2019-04-29T15:51:55.560Z,11.25
2019-04-29T15:52:58.782Z,11.25
2019-04-29T15:53:55.553Z,11.25
2019-04-29T15:54:55.548Z,11.25
2019-04-29T15:56:06.725Z,11.25
2019-04-29T15:56:55.876Z,11.25
2019-04-29T15:57:55.571Z,11.25
2019-04-29T15:58:59.730Z,11.25
2019-04-29T16:01:11.537Z,11.25
2019-04-29T16:01:59.152Z,11.25
2019-04-29T16:02:55.610Z,11.25
2019-04-29T16:03:56.908Z,11.25
2019-04-29T16:04:55.556Z,5.63
2019-04-29T16:06:19.221Z,5.63
2019-04-29T16:06:55.535Z,5.63
2019-04-29T16:07:57.122Z,5.63
2019-04-29T16:08:58.865Z,5.63
2019-04-29T16:09:55.528Z,5.63
2019-04-29T16:10:57.822Z,5.63
2019-04-29T16:11:55.529Z,5.63
2019-04-29T16:12:55.559Z,5.63
2019-04-29T16:14:09.077Z,5.63
2019-04-29T16:14:55.510Z,5.63
2019-04-29T16:15:55.512Z,5.63
2019-04-29T16:16:55.537Z,5.63
2019-04-29T16:17:55.518Z,5.63
2019-04-29T16:19:07.310Z,5.63
2019-04-29T16:19:55.584Z,5.63
2019-04-29T16:20:55.553Z,5.63
2019-04-29T16:21:55.525Z,5.63
2019-04-29T16:23:00.530Z,5.63
2019-04-29T16:23:57.690Z,5.63
2019-04-29T16:24:59.379Z,11.25
2019-04-29T16:25:55.503Z,11.25
2019-04-29T16:26:55.489Z,11.25
2019-04-29T16:27:55.520Z,11.25
2019-04-29T16:28:55.501Z,5.63
2019-04-29T16:29:55.548Z,5.63
2019-04-29T16:30:55.506Z,5.63
2019-04-29T16:32:02.391Z,5.63
2019-04-29T16:32:55.549Z,5.63
2019-04-29T16:33:55.832Z,5.63
2019-04-29T16:34:55.470Z,5.63
2019-04-29T16:35:57.668Z,5.63
2019-04-29T16:36:55.513Z,5.63
2019-04-29T16:37:55.488Z,5.63
2019-04-29T16:38:55.524Z,5.63
2019-04-29T16:39:59.745Z,5.63
2019-04-29T16:40:57.279Z,0.00
2019-04-29T16:41:58.121Z,5.63
2019-04-29T16:42:55.481Z,5.63
2019-04-29T16:43:55.447Z,5.63
2019-04-29T16:44:55.433Z,5.63
2019-04-29T16:45:55.439Z,5.63
2019-04-29T16:46:55.436Z,5.63
2019-04-29T16:47:55.429Z,5.63
2019-04-29T16:48:55.431Z,5.63
2019-04-29T16:49:57.521Z,5.63
2019-04-29T16:50:55.458Z,5.63
2019-04-29T16:51:55.849Z,5.63
2019-04-29T16:52:55.468Z,5.63
2019-04-29T16:53:55.411Z,5.63
2019-04-29T16:54:59.085Z,5.63
2019-04-29T16:55:55.406Z,5.63
2019-04-29T16:56:55.400Z,5.63
2019-04-29T16:57:59.782Z,5.63
2019-04-29T16:58:55.397Z,5.63
2019-04-29T16:59:55.409Z,5.63
2019-04-29T17:00:55.517Z,5.63
2019-04-29T17:01:55.428Z,5.63
2019-04-29T17:02:55.425Z,5.63
2019-04-29T17:03:55.435Z,5.63
2019-04-29T17:04:55.381Z,5.63
2019-04-29T17:05:55.370Z,5.63
2019-04-29T17:07:11.779Z,5.63
2019-04-29T17:07:55.364Z,5.63
2019-04-29T17:09:02.942Z,5.63
2019-04-29T17:09:55.396Z,5.63
2019-04-29T17:10:55.398Z,5.63
2019-04-29T17:11:56.053Z,5.63
2019-04-29T17:12:55.402Z,5.63
2019-04-29T17:13:55.345Z,5.63
2019-04-29T17:15:04.145Z,5.63
2019-04-29T17:15:55.338Z,5.63
2019-04-29T17:16:55.353Z,5.63
2019-04-29T17:17:55.327Z,5.63
2019-04-29T17:18:55.337Z,5.63
2019-04-29T17:19:55.330Z,5.63
2019-04-29T17:21:04.697Z,5.63